Huvudsida
METAR-TAF:

METAR-TAF

Flygplatser :

Vidsels flygplats

Vidsel, Sverige

latitud: 65-52N, longitud: 020-08E, höjd: 180 m

Aktuellt väderrapport

Denna rapport gjordes för 32 minuter sedan, klockan 14:20 UTC
Vind 8 kt från väst, varierande mellan väst/sydväst och nordväst
Temperatur 17°C
Fuktighet 32%
Tryck 1019 hPa
Sikt 10 km eller mer

METAR: ESPE 231420Z AUTO 27008KT 240V310 9999 NCD 17/M00 Q1019

Tid: 16:52 (14:52 UTC)

Väderprognos

Denna rapport gjordes för 9 timmar och 37 minuter sedan, klockan 05:15 UTC
Prognos gäller från 23 kl. 06 UTC till 23 kl. 14 UTC
Vind 2 kt varierande vindriktning
Sikt 10 km eller mer
Inga moln under 1 500 m eller inga cumulonimbus

TAF: ESPE 230515Z 2306/2314 VRB02KT CAVOK RMK MIL

Aktuella väderrapporter och prognoser från 4000 flygplatser (METAR- och TAF-rapporter).

De tillgängliga stationerna syns som gula och röda prickar på kartan.

För musen över prickarna för att se namnen på stationerna.

Klicka sedan för att få väderrapporter och prognoser.

För att ändra kartan: Klicka på de gröna knapparna med ett svart kors på för att zooma in; den gröna knappen med ett streck på för att zooma ut; eller på de gröna pilarna för angränsande kartor.


METAR-TAF: